createdAt,value
2023-04-15T00:00:23.671Z,12.14
2023-04-15T00:01:23.670Z,12.15
2023-04-15T00:02:23.829Z,12.15
2023-04-15T00:03:24.777Z,12.15
2023-04-15T00:04:23.641Z,12.16
2023-04-15T00:05:23.581Z,12.16
2023-04-15T00:06:23.568Z,12.16
2023-04-15T00:07:23.548Z,12.17
2023-04-15T00:08:24.506Z,12.17
2023-04-15T00:09:23.540Z,12.18
2023-04-15T00:10:23.542Z,12.18
2023-04-15T00:11:23.494Z,12.18
2023-04-15T00:12:23.520Z,12.19
2023-04-15T00:13:24.448Z,12.20
2023-04-15T00:14:23.469Z,12.21
2023-04-15T00:15:23.507Z,12.22
2023-04-15T00:16:23.530Z,12.22
2023-04-15T00:17:23.500Z,12.23
2023-04-15T00:18:23.432Z,12.23
2023-04-15T00:19:24.383Z,12.24
2023-04-15T00:20:23.404Z,12.25
2023-04-15T00:21:23.404Z,12.26
2023-04-15T00:22:23.376Z,12.27
2023-04-15T00:23:23.376Z,12.28
2023-04-15T00:24:24.308Z,12.29
2023-04-15T00:25:23.334Z,12.30
2023-04-15T00:26:23.320Z,12.30
2023-04-15T00:27:23.322Z,12.31
2023-04-15T00:28:23.300Z,12.31
2023-04-15T00:29:23.295Z,12.31
2023-04-15T00:30:24.222Z,12.32
2023-04-15T00:31:23.486Z,12.32
2023-04-15T00:32:23.354Z,12.33
2023-04-15T00:33:23.238Z,12.33
2023-04-15T00:34:23.262Z,12.33
2023-04-15T00:35:23.198Z,12.32
2023-04-15T00:36:24.149Z,12.31
2023-04-15T00:37:23.177Z,12.31
2023-04-15T00:38:23.185Z,12.31
2023-04-15T00:39:23.193Z,12.30
2023-04-15T00:40:23.174Z,12.30
2023-04-15T00:41:23.173Z,12.29
2023-04-15T00:42:24.068Z,12.28
2023-04-15T00:43:23.128Z,12.28
2023-04-15T00:44:23.126Z,12.27
2023-04-15T00:45:23.100Z,12.27
2023-04-15T00:46:23.101Z,12.26
2023-04-15T00:47:24.062Z,12.25
2023-04-15T00:48:23.046Z,12.24
2023-04-15T00:49:23.031Z,12.24
2023-04-15T00:50:23.147Z,12.24
2023-04-15T00:51:23.018Z,12.24
2023-04-15T00:52:22.991Z,12.23
2023-04-15T00:53:23.923Z,12.23
2023-04-15T00:54:22.966Z,12.23
2023-04-15T00:55:23.101Z,12.23
2023-04-15T00:56:22.979Z,12.23
2023-04-15T00:57:22.916Z,12.23
2023-04-15T00:58:22.907Z,12.23
2023-04-15T00:59:23.834Z,12.23
2023-04-15T01:00:22.893Z,12.24
2023-04-15T01:01:22.939Z,12.24
2023-04-15T01:02:22.978Z,12.24
2023-04-15T01:03:23.110Z,12.25
2023-04-15T01:04:23.825Z,12.26
2023-04-15T01:05:22.834Z,12.26
2023-04-15T01:06:22.825Z,12.27
2023-04-15T01:07:22.828Z,12.27
2023-04-15T01:08:22.770Z,12.28
2023-04-15T01:09:22.772Z,12.28
2023-04-15T01:10:23.674Z,12.28
2023-04-15T01:11:22.757Z,12.28
2023-04-15T01:12:22.736Z,12.28
2023-04-15T01:13:22.707Z,12.28
2023-04-15T01:14:22.695Z,12.27
2023-04-15T01:15:23.644Z,12.27
2023-04-15T01:16:22.793Z,12.27
2023-04-15T01:17:22.732Z,12.27
2023-04-15T01:18:22.663Z,12.27
2023-04-15T01:19:22.650Z,12.26
2023-04-15T01:20:23.552Z,12.26
2023-04-15T01:21:22.647Z,12.25
2023-04-15T01:22:22.606Z,12.25
2023-04-15T01:23:22.587Z,12.25
2023-04-15T01:24:22.563Z,12.25
2023-04-15T01:25:22.573Z,12.25
2023-04-15T01:26:23.477Z,12.26
2023-04-15T01:27:22.548Z,12.26
2023-04-15T01:28:22.558Z,12.27
2023-04-15T01:29:22.525Z,12.27
2023-04-15T01:30:22.511Z,12.28
2023-04-15T01:31:23.451Z,12.29
2023-04-15T01:32:22.516Z,12.30
2023-04-15T01:33:22.522Z,12.30
2023-04-15T01:34:22.488Z,12.31
2023-04-15T01:35:22.426Z,12.31
2023-04-15T01:36:23.379Z,12.32
2023-04-15T01:37:22.408Z,12.32
2023-04-15T01:38:22.412Z,12.32
2023-04-15T01:39:22.390Z,12.32
2023-04-15T01:40:22.384Z,12.32
2023-04-15T01:41:23.321Z,12.33
2023-04-15T01:42:22.373Z,12.33
2023-04-15T01:43:22.369Z,12.33
2023-04-15T01:44:22.320Z,12.33
2023-04-15T01:45:22.304Z,12.33
2023-04-15T01:46:22.337Z,12.33
2023-04-15T01:47:23.257Z,12.32
2023-04-15T01:48:22.279Z,12.32
2023-04-15T01:49:22.276Z,12.32
2023-04-15T01:50:22.256Z,12.32
2023-04-15T01:51:22.252Z,12.31
2023-04-15T01:52:23.195Z,12.31
2023-04-15T01:53:22.216Z,12.31
2023-04-15T01:54:22.189Z,12.30
2023-04-15T01:55:22.178Z,12.30
2023-04-15T01:56:22.184Z,12.31
2023-04-15T01:57:22.184Z,12.31
2023-04-15T01:58:23.098Z,12.31
2023-04-15T01:59:22.158Z,12.32
2023-04-15T02:00:22.148Z,12.32
2023-04-15T02:01:22.203Z,12.33
2023-04-15T02:02:22.166Z,12.33
2023-04-15T02:03:22.214Z,12.34
2023-04-15T02:04:23.031Z,12.34
2023-04-15T02:05:22.075Z,12.35
2023-04-15T02:06:22.046Z,12.35
2023-04-15T02:07:22.058Z,12.34
2023-04-15T02:08:22.054Z,12.34
2023-04-15T02:09:22.025Z,12.34
2023-04-15T02:10:22.936Z,12.34
2023-04-15T02:11:21.989Z,12.34
2023-04-15T02:12:21.994Z,12.34
2023-04-15T02:13:21.955Z,12.34
2023-04-15T02:14:21.948Z,12.34
2023-04-15T02:15:21.943Z,12.34
2023-04-15T02:16:22.886Z,12.34
2023-04-15T02:17:21.986Z,12.34
2023-04-15T02:18:21.913Z,12.34
2023-04-15T02:19:21.886Z,12.34
2023-04-15T02:20:21.880Z,12.34
2023-04-15T02:21:21.887Z,12.34
2023-04-15T02:22:22.788Z,12.34
2023-04-15T02:23:21.859Z,12.34
2023-04-15T02:24:21.838Z,12.34
2023-04-15T02:25:21.842Z,12.34
2023-04-15T02:26:21.795Z,12.34
2023-04-15T02:27:21.785Z,12.34
2023-04-15T02:28:22.710Z,12.34
2023-04-15T02:29:21.753Z,12.35
2023-04-15T02:30:21.743Z,12.35
2023-04-15T02:31:21.803Z,12.35
2023-04-15T02:32:21.761Z,12.36
2023-04-15T02:33:21.789Z,12.36
2023-04-15T02:34:22.628Z,12.36
2023-04-15T02:35:21.659Z,12.36
2023-04-15T02:36:21.682Z,12.35
2023-04-15T02:37:21.655Z,12.35
2023-04-15T02:38:21.692Z,12.35
2023-04-15T02:39:21.624Z,12.35
2023-04-15T02:40:22.555Z,12.34
2023-04-15T02:41:21.603Z,12.34
2023-04-15T02:42:21.626Z,12.34
2023-04-15T02:43:21.611Z,12.34
2023-04-15T02:44:21.573Z,12.33
2023-04-15T02:45:21.558Z,12.33
2023-04-15T02:46:22.516Z,12.32
2023-04-15T02:47:21.537Z,12.31
2023-04-15T02:48:21.526Z,12.29
2023-04-15T02:49:21.529Z,12.28
2023-04-15T02:50:21.492Z,12.27
2023-04-15T02:51:21.490Z,12.26
2023-04-15T02:52:22.396Z,12.25
2023-04-15T02:53:21.464Z,12.25
2023-04-15T02:54:21.440Z,12.25
2023-04-15T02:55:21.432Z,12.25
2023-04-15T02:56:21.412Z,12.25
2023-04-15T02:57:22.366Z,12.25
2023-04-15T02:58:21.392Z,12.25
2023-04-15T02:59:21.382Z,12.25
2023-04-15T03:00:21.370Z,12.25
2023-04-15T03:01:21.376Z,12.26
2023-04-15T03:02:21.433Z,12.26
2023-04-15T03:03:22.366Z,12.26
2023-04-15T03:04:21.347Z,12.27
2023-04-15T03:05:21.319Z,12.27
2023-04-15T03:06:21.293Z,12.27
2023-04-15T03:07:21.255Z,12.28
2023-04-15T03:08:21.250Z,12.28
2023-04-15T03:09:22.186Z,12.29
2023-04-15T03:10:21.238Z,12.29
2023-04-15T03:11:21.229Z,12.30
2023-04-15T03:12:21.235Z,12.30
2023-04-15T03:13:21.187Z,12.31
2023-04-15T03:14:21.223Z,12.31
2023-04-15T03:15:22.109Z,12.31
2023-04-15T03:16:21.184Z,12.32
2023-04-15T03:17:21.190Z,12.32
2023-04-15T03:18:21.155Z,12.32
2023-04-15T03:19:21.124Z,12.33
2023-04-15T03:20:21.140Z,12.33
2023-04-15T03:21:22.046Z,12.34
2023-04-15T03:22:21.083Z,12.35
2023-04-15T03:23:21.065Z,12.36
2023-04-15T03:24:21.147Z,12.37
2023-04-15T03:25:21.098Z,12.37
2023-04-15T03:26:21.944Z,12.38
2023-04-15T03:27:21.015Z,12.39
2023-04-15T03:28:21.022Z,12.39
2023-04-15T03:29:20.980Z,12.40
2023-04-15T03:30:20.991Z,12.41
2023-04-15T03:31:21.888Z,12.41
2023-04-15T03:32:20.996Z,12.42
2023-04-15T03:33:20.961Z,12.43
2023-04-15T03:34:20.940Z,12.44
2023-04-15T03:35:20.943Z,12.45
2023-04-15T03:36:20.938Z,12.45
2023-04-15T03:37:21.805Z,12.45
2023-04-15T03:38:20.883Z,12.46
2023-04-15T03:39:20.858Z,12.46
2023-04-15T03:40:20.878Z,12.46
2023-04-15T03:41:20.887Z,12.46
2023-04-15T03:42:20.818Z,12.47
2023-04-15T03:43:21.748Z,12.47
2023-04-15T03:44:20.793Z,12.48
2023-04-15T03:45:20.788Z,12.48
2023-04-15T03:46:20.832Z,12.48
2023-04-15T03:47:20.800Z,12.48
2023-04-15T03:48:21.727Z,12.49
2023-04-15T03:49:20.724Z,12.49
2023-04-15T03:50:20.723Z,12.49
2023-04-15T03:51:20.740Z,12.50
2023-04-15T03:52:20.710Z,12.50
2023-04-15T03:53:20.662Z,12.51
2023-04-15T03:54:21.616Z,12.52
2023-04-15T03:55:20.668Z,12.53
2023-04-15T03:56:20.650Z,12.53
2023-04-15T03:57:20.631Z,12.54
2023-04-15T03:58:20.621Z,12.54
2023-04-15T03:59:21.552Z,12.54
2023-04-15T04:00:20.605Z,12.55
2023-04-15T04:01:20.635Z,12.55
2023-04-15T04:02:20.654Z,12.56
2023-04-15T04:03:20.646Z,12.56
2023-04-15T04:04:20.656Z,12.56
2023-04-15T04:05:21.469Z,12.56
2023-04-15T04:06:20.489Z,12.56
2023-04-15T04:07:20.514Z,12.56
2023-04-15T04:08:20.501Z,12.55
2023-04-15T04:09:20.476Z,12.55
2023-04-15T04:10:20.474Z,12.55
2023-04-15T04:11:21.375Z,12.56
2023-04-15T04:12:20.439Z,12.56
2023-04-15T04:13:20.457Z,12.56
2023-04-15T04:14:20.427Z,12.57
2023-04-15T04:15:20.403Z,12.57
2023-04-15T04:16:21.450Z,12.58
2023-04-15T04:17:20.376Z,12.59
2023-04-15T04:18:20.354Z,12.59
2023-04-15T04:19:20.348Z,12.60
2023-04-15T04:20:20.349Z,12.60
2023-04-15T04:21:21.278Z,12.61
2023-04-15T04:22:20.340Z,12.61
2023-04-15T04:23:20.308Z,12.61
2023-04-15T04:24:20.313Z,12.62
2023-04-15T04:25:20.278Z,12.62
2023-04-15T04:26:20.273Z,12.63
2023-04-15T04:27:21.179Z,12.63
2023-04-15T04:28:20.236Z,12.64
2023-04-15T04:29:20.242Z,12.64
2023-04-15T04:30:20.233Z,12.65
2023-04-15T04:31:20.273Z,12.66
2023-04-15T04:32:21.158Z,12.66
2023-04-15T04:33:20.197Z,12.67
2023-04-15T04:34:20.161Z,12.67
2023-04-15T04:35:20.152Z,12.68
2023-04-15T04:36:20.118Z,12.69
2023-04-15T04:37:20.149Z,12.70
2023-04-15T04:38:21.023Z,12.71
2023-04-15T04:39:20.086Z,12.72
2023-04-15T04:40:20.067Z,12.73
2023-04-15T04:41:20.061Z,12.75
2023-04-15T04:42:20.061Z,12.76
2023-04-15T04:43:20.973Z,12.77
2023-04-15T04:44:20.038Z,12.78
2023-04-15T04:45:20.033Z,12.79
2023-04-15T04:46:20.031Z,12.80
2023-04-15T04:47:19.997Z,12.81
2023-04-15T04:48:20.905Z,12.82
2023-04-15T04:49:19.957Z,12.82
2023-04-15T04:50:19.960Z,12.83
2023-04-15T04:51:19.937Z,12.83
2023-04-15T04:52:19.934Z,12.84
2023-04-15T04:53:20.873Z,12.85
2023-04-15T04:54:19.906Z,12.85
2023-04-15T04:55:19.873Z,12.86
2023-04-15T04:56:19.873Z,12.87
2023-04-15T04:57:19.845Z,12.89
2023-04-15T04:58:19.849Z,12.90
2023-04-15T04:59:20.768Z,12.91
2023-04-15T05:00:19.805Z,12.93
2023-04-15T05:01:19.835Z,12.94
2023-04-15T05:02:19.945Z,12.96
2023-04-15T05:03:20.011Z,12.98
2023-04-15T05:04:20.676Z,13.00
2023-04-15T05:05:19.782Z,13.01
2023-04-15T05:06:19.782Z,13.03
2023-04-15T05:07:19.736Z,13.05
2023-04-15T05:08:19.744Z,13.06
2023-04-15T05:09:19.724Z,13.08
2023-04-15T05:10:20.603Z,13.09
2023-04-15T05:11:19.690Z,13.11
2023-04-15T05:12:19.719Z,13.12
2023-04-15T05:13:19.665Z,13.14
2023-04-15T05:14:20.509Z,13.16
2023-04-15T05:15:19.618Z,13.17
2023-04-15T05:16:20.639Z,13.19
2023-04-15T05:17:19.624Z,13.21
2023-04-15T05:18:19.588Z,13.23
2023-04-15T05:19:19.593Z,13.25
2023-04-15T05:20:19.576Z,13.27
2023-04-15T05:21:19.603Z,13.28
2023-04-15T05:22:20.517Z,13.29
2023-04-15T05:23:19.528Z,13.31
2023-04-15T05:24:19.500Z,13.32
2023-04-15T05:25:19.533Z,13.33
2023-04-15T05:26:19.496Z,13.34
2023-04-15T05:27:20.406Z,13.35
2023-04-15T05:28:19.474Z,13.35
2023-04-15T05:29:19.460Z,13.36
2023-04-15T05:30:19.443Z,13.36
2023-04-15T05:31:19.529Z,13.36
2023-04-15T05:32:19.451Z,13.37
2023-04-15T05:33:20.358Z,13.37
2023-04-15T05:34:19.412Z,13.37
2023-04-15T05:35:19.375Z,13.37
2023-04-15T05:36:19.407Z,13.38
2023-04-15T05:37:19.355Z,13.40
2023-04-15T05:38:20.260Z,13.42
2023-04-15T05:39:19.351Z,13.45
2023-04-15T05:40:19.350Z,13.48
2023-04-15T05:41:19.958Z,13.50
2023-04-15T05:42:19.277Z,13.52
2023-04-15T05:43:19.278Z,13.54
2023-04-15T05:44:20.205Z,13.56
2023-04-15T05:45:19.270Z,13.59
2023-04-15T05:46:19.248Z,13.61
2023-04-15T05:47:19.249Z,13.63
2023-04-15T05:48:19.226Z,13.65
2023-04-15T05:49:19.214Z,13.66
2023-04-15T05:50:20.122Z,13.68
2023-04-15T05:51:19.175Z,13.70
2023-04-15T05:52:19.175Z,13.72
2023-04-15T05:53:19.154Z,13.74
2023-04-15T05:54:20.302Z,13.76
2023-04-15T05:55:20.280Z,13.79
2023-04-15T05:56:19.156Z,13.82
2023-04-15T05:57:19.150Z,13.86
2023-04-15T05:58:19.069Z,13.90
2023-04-15T05:59:19.068Z,13.95
2023-04-15T06:00:19.980Z,14.00
2023-04-15T06:01:19.052Z,14.04
2023-04-15T06:02:19.175Z,14.09
2023-04-15T06:03:19.073Z,14.13
2023-04-15T06:04:19.186Z,14.18
2023-04-15T06:05:19.046Z,14.22
2023-04-15T06:06:19.963Z,14.26
2023-04-15T06:07:18.953Z,14.31
2023-04-15T06:08:18.995Z,14.36
2023-04-15T06:09:18.979Z,14.40
2023-04-15T06:10:18.938Z,14.44
2023-04-15T06:11:18.958Z,14.48
2023-04-15T06:12:19.838Z,14.52
2023-04-15T06:13:18.908Z,14.56
2023-04-15T06:14:18.896Z,14.59
2023-04-15T06:15:18.893Z,14.62
2023-04-15T06:16:18.903Z,14.65
2023-04-15T06:17:18.899Z,14.67
2023-04-15T06:18:19.761Z,14.69
2023-04-15T06:19:19.144Z,14.71
2023-04-15T06:20:18.827Z,14.72
2023-04-15T06:21:18.791Z,14.74
2023-04-15T06:22:18.782Z,14.76
2023-04-15T06:23:18.773Z,14.78
2023-04-15T06:24:19.716Z,14.80
2023-04-15T06:25:18.756Z,14.82
2023-04-15T06:26:18.728Z,14.84
2023-04-15T06:27:18.720Z,14.86
2023-04-15T06:28:18.715Z,14.88
2023-04-15T06:29:19.647Z,14.90
2023-04-15T06:30:18.723Z,14.92
2023-04-15T06:31:18.716Z,14.94
2023-04-15T06:32:18.647Z,14.97
2023-04-15T06:33:18.650Z,14.99
2023-04-15T06:34:18.627Z,15.01
2023-04-15T06:35:19.554Z,15.03
2023-04-15T06:36:18.613Z,15.05
2023-04-15T06:37:18.608Z,15.08
2023-04-15T06:38:18.574Z,15.11
2023-04-15T06:39:18.554Z,15.15
2023-04-15T06:40:18.603Z,15.20
2023-04-15T06:41:19.493Z,15.26
2023-04-15T06:42:18.543Z,15.33
2023-04-15T06:43:18.543Z,15.40
2023-04-15T06:44:18.496Z,15.47
2023-04-15T06:45:18.490Z,15.52
2023-04-15T06:46:19.583Z,15.58
2023-04-15T06:47:18.499Z,15.63
2023-04-15T06:48:18.451Z,15.68
2023-04-15T06:49:18.457Z,15.73
2023-04-15T06:50:18.461Z,15.78
2023-04-15T06:51:19.350Z,15.83
2023-04-15T06:52:18.410Z,15.88
2023-04-15T06:53:18.413Z,15.94
2023-04-15T06:54:18.383Z,16.00
2023-04-15T06:55:18.355Z,16.06
2023-04-15T06:56:18.352Z,16.12
2023-04-15T06:57:19.295Z,16.18
2023-04-15T06:58:18.348Z,16.25
2023-04-15T06:59:18.323Z,16.31
2023-04-15T07:00:18.288Z,16.37
2023-04-15T07:01:18.353Z,16.44
2023-04-15T07:02:19.325Z,16.51
2023-04-15T07:03:18.301Z,16.58
2023-04-15T07:04:18.273Z,16.66
2023-04-15T07:05:18.238Z,16.74
2023-04-15T07:06:18.235Z,16.81
2023-04-15T07:07:19.149Z,16.87
2023-04-15T07:08:18.201Z,16.93
2023-04-15T07:09:18.192Z,16.99
2023-04-15T07:10:18.182Z,17.03
2023-04-15T07:11:18.144Z,17.09
2023-04-15T07:12:18.162Z,17.15
2023-04-15T07:13:19.074Z,17.21
2023-04-15T07:14:18.167Z,17.26
2023-04-15T07:15:18.114Z,17.29
2023-04-15T07:16:18.121Z,17.32
2023-04-15T07:17:18.110Z,17.34
2023-04-15T07:18:19.018Z,17.37
2023-04-15T07:19:18.061Z,17.40
2023-04-15T07:20:18.047Z,17.41
2023-04-15T07:21:18.049Z,17.40
2023-04-15T07:22:18.040Z,17.40
2023-04-15T07:23:18.013Z,17.40
2023-04-15T07:24:18.937Z,17.41
2023-04-15T07:25:18.364Z,17.41
2023-04-15T07:26:17.950Z,17.40
2023-04-15T07:27:17.980Z,17.41
2023-04-15T07:28:17.927Z,17.40
2023-04-15T07:29:18.868Z,17.37
2023-04-15T07:30:17.930Z,17.32
2023-04-15T07:31:17.974Z,17.26
2023-04-15T07:32:17.873Z,17.18
2023-04-15T07:33:17.898Z,17.10
2023-04-15T07:34:18.803Z,17.02
2023-04-15T07:35:17.848Z,16.96
2023-04-15T07:36:17.841Z,16.92
2023-04-15T07:37:17.817Z,16.89
2023-04-15T07:38:17.810Z,16.86
2023-04-15T07:39:18.703Z,16.83
2023-04-15T07:40:17.780Z,16.82
2023-04-15T07:41:17.783Z,16.81
2023-04-15T07:42:17.877Z,16.81
2023-04-15T07:43:17.731Z,16.82
2023-04-15T07:44:18.646Z,16.81
2023-04-15T07:45:17.774Z,16.77
2023-04-15T07:46:17.761Z,16.74
2023-04-15T07:47:17.762Z,16.69
2023-04-15T07:48:17.683Z,16.64
2023-04-15T07:49:17.692Z,16.59
2023-04-15T07:50:18.585Z,16.54
2023-04-15T07:51:17.674Z,16.49
2023-04-15T07:52:17.622Z,16.45
2023-04-15T07:53:17.614Z,16.41
2023-04-15T07:54:17.635Z,16.38
2023-04-15T07:55:18.517Z,16.34
2023-04-15T07:56:17.603Z,16.30
2023-04-15T07:57:17.581Z,16.24
2023-04-15T07:58:17.577Z,16.18
2023-04-15T07:59:17.547Z,16.12
2023-04-15T08:00:18.428Z,16.09
2023-04-15T08:01:17.516Z,16.09
2023-04-15T08:02:17.620Z,16.08
2023-04-15T08:03:17.559Z,16.07
2023-04-15T08:04:17.582Z,16.06
2023-04-15T08:05:17.509Z,16.04
2023-04-15T08:06:18.368Z,16.04
2023-04-15T08:07:17.416Z,16.04
2023-04-15T08:08:17.480Z,16.05
2023-04-15T08:09:17.408Z,16.05
2023-04-15T08:10:17.384Z,16.05
2023-04-15T08:11:17.379Z,16.03
2023-04-15T08:12:18.291Z,16.01
2023-04-15T08:13:17.380Z,15.99
2023-04-15T08:14:17.353Z,15.98
2023-04-15T08:15:17.376Z,15.96
2023-04-15T08:16:17.336Z,15.94
2023-04-15T08:17:17.325Z,15.90
2023-04-15T08:18:18.223Z,15.87
2023-04-15T08:19:17.280Z,15.84
2023-04-15T08:20:17.234Z,15.81
2023-04-15T08:21:17.237Z,15.78
2023-04-15T08:22:18.186Z,15.75
2023-04-15T08:23:17.261Z,15.72
2023-04-15T08:24:18.140Z,15.70
2023-04-15T08:25:17.183Z,15.68
2023-04-15T08:26:17.168Z,15.66
2023-04-15T08:27:17.188Z,15.65
2023-04-15T08:28:17.163Z,15.64
2023-04-15T08:29:18.117Z,15.64
2023-04-15T08:30:17.125Z,15.64
2023-04-15T08:31:17.122Z,15.65
2023-04-15T08:32:17.109Z,15.65
2023-04-15T08:33:17.073Z,15.65
2023-04-15T08:34:17.058Z,15.65
2023-04-15T08:35:18.000Z,15.66
2023-04-15T08:36:17.056Z,15.66
2023-04-15T08:37:17.030Z,15.65
2023-04-15T08:38:17.028Z,15.64
2023-04-15T08:39:17.021Z,15.63
2023-04-15T08:40:17.015Z,15.62
2023-04-15T08:41:17.918Z,15.63
2023-04-15T08:42:16.963Z,15.64
2023-04-15T08:43:16.961Z,15.65
2023-04-15T08:44:16.945Z,15.65
2023-04-15T08:45:16.915Z,15.65
2023-04-15T08:46:16.934Z,15.66
2023-04-15T08:47:17.832Z,15.67
2023-04-15T08:48:16.921Z,15.67
2023-04-15T08:49:16.951Z,15.70
2023-04-15T08:50:16.847Z,15.72
2023-04-15T08:51:16.867Z,15.75
2023-04-15T08:52:17.768Z,15.79
2023-04-15T08:53:16.849Z,15.83
2023-04-15T08:54:16.819Z,15.86
2023-04-15T08:55:16.815Z,15.87
2023-04-15T08:56:17.031Z,15.86
2023-04-15T08:57:16.798Z,15.84
2023-04-15T08:58:17.711Z,15.81
2023-04-15T08:59:16.740Z,15.79
2023-04-15T09:00:16.741Z,15.76
2023-04-15T09:01:16.751Z,15.73
2023-04-15T09:02:16.725Z,15.71
2023-04-15T09:03:16.789Z,15.70
2023-04-15T09:04:17.641Z,15.69
2023-04-15T09:05:16.682Z,15.70
2023-04-15T09:06:16.788Z,15.69
2023-04-15T09:07:16.667Z,15.70
2023-04-15T09:08:16.665Z,15.71
2023-04-15T09:09:16.630Z,15.72
2023-04-15T09:10:17.551Z,15.73
2023-04-15T09:11:17.400Z,15.74
2023-04-15T09:12:16.580Z,15.75
2023-04-15T09:13:16.611Z,15.75
2023-04-15T09:14:16.544Z,15.74
2023-04-15T09:15:16.543Z,15.74
2023-04-15T09:16:17.534Z,15.74
2023-04-15T09:17:16.508Z,15.74
2023-04-15T09:18:16.503Z,15.76
2023-04-15T09:19:16.476Z,15.80
2023-04-15T09:20:16.500Z,15.83
2023-04-15T09:21:16.504Z,15.85
2023-04-15T09:22:17.366Z,15.86
2023-04-15T09:23:16.442Z,15.85
2023-04-15T09:24:16.427Z,15.85
2023-04-15T09:25:16.408Z,15.84
2023-04-15T09:26:16.406Z,15.85
2023-04-15T09:27:17.446Z,15.85
2023-04-15T09:28:16.678Z,15.86
2023-04-15T09:29:16.377Z,15.87
2023-04-15T09:30:16.374Z,15.90
2023-04-15T09:31:16.393Z,15.92
2023-04-15T09:32:16.336Z,15.92
2023-04-15T09:33:17.284Z,15.92
2023-04-15T09:34:16.284Z,15.90
2023-04-15T09:35:16.271Z,15.89
2023-04-15T09:36:16.278Z,15.88
2023-04-15T09:37:31.294Z,15.88
2023-04-15T09:38:17.755Z,15.90
2023-04-15T09:39:17.151Z,15.92
2023-04-15T09:40:16.205Z,15.96
2023-04-15T09:41:16.301Z,16.00
2023-04-15T09:42:16.189Z,16.05
2023-04-15T09:43:16.166Z,16.09
2023-04-15T09:44:17.094Z,16.11
2023-04-15T09:45:16.172Z,16.13
2023-04-15T09:46:16.194Z,16.15
2023-04-15T09:47:16.130Z,16.18
2023-04-15T09:48:16.103Z,16.22
2023-04-15T09:49:17.044Z,16.25
2023-04-15T09:50:16.092Z,16.29
2023-04-15T09:51:16.097Z,16.31
2023-04-15T09:52:16.058Z,16.32
2023-04-15T09:53:16.021Z,16.33
2023-04-15T09:54:17.024Z,16.33
2023-04-15T09:55:16.287Z,16.33
2023-04-15T09:56:16.003Z,16.33
2023-04-15T09:57:16.214Z,16.34
2023-04-15T09:58:16.058Z,16.34
2023-04-15T09:59:16.013Z,16.34
2023-04-15T10:00:16.921Z,16.33
2023-04-15T10:01:15.942Z,16.31
2023-04-15T10:02:15.998Z,16.28
2023-04-15T10:03:16.069Z,16.25
2023-04-15T10:04:16.018Z,16.24
2023-04-15T10:05:15.888Z,16.22
2023-04-15T10:06:16.815Z,16.21
2023-04-15T10:07:15.891Z,16.20
2023-04-15T10:08:15.865Z,16.19
2023-04-15T10:09:15.852Z,16.20
2023-04-15T10:10:15.907Z,16.19
2023-04-15T10:11:15.838Z,16.17
2023-04-15T10:12:16.750Z,16.15
2023-04-15T10:13:15.826Z,16.13
2023-04-15T10:14:15.787Z,16.11
2023-04-15T10:15:15.759Z,16.09
2023-04-15T10:16:15.774Z,16.06
2023-04-15T10:17:15.735Z,16.03
2023-04-15T10:18:16.683Z,15.99
2023-04-15T10:19:15.738Z,15.97
2023-04-15T10:20:15.745Z,15.95
2023-04-15T10:21:15.694Z,15.92
2023-04-15T10:22:15.697Z,15.89
2023-04-15T10:23:15.681Z,15.88
2023-04-15T10:24:16.572Z,15.87
2023-04-15T10:25:15.665Z,15.86
2023-04-15T10:26:15.642Z,15.85
2023-04-15T10:27:15.635Z,15.83
2023-04-15T10:28:15.639Z,15.80
2023-04-15T10:29:15.588Z,15.78
2023-04-15T10:30:16.496Z,15.75
2023-04-15T10:31:15.617Z,15.73
2023-04-15T10:32:15.551Z,15.71
2023-04-15T10:33:15.556Z,15.70
2023-04-15T10:34:15.634Z,15.68
2023-04-15T10:35:15.529Z,15.67
2023-04-15T10:36:16.425Z,15.68
2023-04-15T10:37:15.526Z,15.69
2023-04-15T10:38:15.493Z,15.71
2023-04-15T10:39:15.567Z,15.73
2023-04-15T10:40:15.425Z,15.76
2023-04-15T10:41:17.067Z,15.79
2023-04-15T10:42:16.385Z,15.82
2023-04-15T10:43:15.409Z,15.85
2023-04-15T10:44:15.379Z,15.89
2023-04-15T10:45:15.393Z,15.94
2023-04-15T10:46:15.370Z,16.00
2023-04-15T10:47:15.364Z,16.05
2023-04-15T10:48:16.293Z,16.09
2023-04-15T10:49:15.360Z,16.11
2023-04-15T10:50:15.362Z,16.11
2023-04-15T10:51:15.336Z,16.14
2023-04-15T10:52:15.291Z,16.17
2023-04-15T10:53:16.212Z,16.22
2023-04-15T10:54:15.310Z,16.26
2023-04-15T10:55:15.246Z,16.30
2023-04-15T10:56:15.279Z,16.35
2023-04-15T10:57:15.237Z,16.41
2023-04-15T10:58:16.138Z,16.50
2023-04-15T10:59:15.197Z,16.57
2023-04-15T11:00:15.217Z,16.63
2023-04-15T11:01:15.177Z,16.68
2023-04-15T11:02:15.279Z,16.72
2023-04-15T11:03:15.237Z,16.74
2023-04-15T11:04:16.187Z,16.75
2023-04-15T11:05:15.151Z,16.77
2023-04-15T11:06:16.166Z,16.79
2023-04-15T11:07:15.122Z,16.80
2023-04-15T11:08:15.101Z,16.82
2023-04-15T11:09:16.003Z,16.82
2023-04-15T11:10:15.064Z,16.80
2023-04-15T11:11:15.051Z,16.77
2023-04-15T11:12:15.026Z,16.74
2023-04-15T11:13:15.034Z,16.69
2023-04-15T11:14:15.949Z,16.65
2023-04-15T11:15:15.034Z,16.61
2023-04-15T11:16:15.041Z,16.58
2023-04-15T11:17:14.986Z,16.53
2023-04-15T11:18:15.004Z,16.47
2023-04-15T11:19:15.905Z,16.40
2023-04-15T11:20:14.940Z,16.33
2023-04-15T11:21:15.169Z,16.27
2023-04-15T11:22:14.910Z,16.23
2023-04-15T11:23:15.730Z,16.18
2023-04-15T11:24:14.903Z,16.14
2023-04-15T11:25:15.791Z,16.10
2023-04-15T11:26:14.866Z,16.09
2023-04-15T11:27:14.869Z,16.07
2023-04-15T11:28:14.856Z,16.06
2023-04-15T11:29:14.831Z,16.04
2023-04-15T11:30:15.728Z,16.03
2023-04-15T11:31:14.819Z,16.04
2023-04-15T11:32:14.828Z,16.04
2023-04-15T11:33:14.787Z,16.03
2023-04-15T11:34:14.762Z,16.02
2023-04-15T11:35:15.678Z,16.01
2023-04-15T11:36:14.772Z,15.99
2023-04-15T11:37:14.712Z,15.97
2023-04-15T11:38:14.719Z,15.94
2023-04-15T11:39:14.699Z,15.91
2023-04-15T11:40:15.593Z,15.88
2023-04-15T11:41:14.660Z,15.87
2023-04-15T11:42:14.657Z,15.86
2023-04-15T11:43:14.647Z,15.84
2023-04-15T11:44:14.635Z,15.82
2023-04-15T11:45:15.536Z,15.78
2023-04-15T11:46:14.665Z,15.75
2023-04-15T11:47:14.592Z,15.73
2023-04-15T11:48:14.619Z,15.72
2023-04-15T11:49:14.563Z,15.74
2023-04-15T11:50:14.544Z,15.76
2023-04-15T11:51:15.491Z,15.77
2023-04-15T11:52:14.495Z,15.78
2023-04-15T11:53:14.493Z,15.78
2023-04-15T11:54:14.498Z,15.79
2023-04-15T11:55:14.513Z,15.80
2023-04-15T11:57:12.897Z,16.88
2023-04-15T11:58:14.430Z,16.41
2023-04-15T11:59:12.854Z,16.07
2023-04-15T12:00:12.801Z,15.88
2023-04-15T12:01:12.892Z,15.78
2023-04-15T12:02:13.869Z,15.75
2023-04-15T12:03:12.938Z,15.75
2023-04-15T12:04:13.027Z,15.78
2023-04-15T12:05:12.800Z,15.81
2023-04-15T12:06:12.762Z,15.81
2023-04-15T12:07:13.727Z,15.79
2023-04-15T12:08:12.788Z,15.75
2023-04-15T12:09:12.756Z,15.74
2023-04-15T12:10:12.723Z,15.73
2023-04-15T12:11:12.767Z,15.73
2023-04-15T12:12:12.702Z,15.73
2023-04-15T12:13:13.684Z,15.75
2023-04-15T12:14:12.692Z,15.80
2023-04-15T12:15:12.730Z,15.86
2023-04-15T12:16:12.676Z,15.92
2023-04-15T12:17:12.680Z,15.97
2023-04-15T12:18:13.566Z,16.05
2023-04-15T12:19:12.612Z,16.12
2023-04-15T12:20:12.623Z,16.16
2023-04-15T12:21:12.562Z,16.18
2023-04-15T12:22:12.581Z,16.19
2023-04-15T12:23:12.578Z,16.22
2023-04-15T12:24:13.502Z,16.26
2023-04-15T12:25:12.524Z,16.30
2023-04-15T12:26:12.549Z,16.32
2023-04-15T12:27:12.497Z,16.32
2023-04-15T12:28:12.531Z,16.30
2023-04-15T12:29:12.472Z,16.30
2023-04-15T12:30:13.396Z,16.30
2023-04-15T12:31:12.457Z,16.30
2023-04-15T12:32:12.509Z,16.31
2023-04-15T12:33:12.417Z,16.31
2023-04-15T12:34:12.552Z,16.31
2023-04-15T12:35:12.431Z,16.33
2023-04-15T12:36:13.374Z,16.39
2023-04-15T12:37:12.434Z,16.44
2023-04-15T12:38:12.338Z,16.44
2023-04-15T12:39:12.326Z,16.44
2023-04-15T12:40:12.308Z,16.45
2023-04-15T12:41:12.358Z,16.47
2023-04-15T12:42:13.295Z,16.48
2023-04-15T12:43:12.349Z,16.49
2023-04-15T12:44:12.309Z,16.50
2023-04-15T12:45:12.302Z,16.53
2023-04-15T12:46:12.404Z,16.55
2023-04-15T12:47:12.263Z,16.56
2023-04-15T12:48:13.268Z,16.58
2023-04-15T12:49:12.316Z,16.61
2023-04-15T12:50:12.326Z,16.62
2023-04-15T12:51:12.332Z,16.62
2023-04-15T12:52:12.180Z,16.62
2023-04-15T12:53:12.145Z,16.65